createdAt,value
2022-08-22T00:00:38.236Z,101725.75
2022-08-22T00:01:38.641Z,101717.47
2022-08-22T00:02:23.689Z,101718.66
2022-08-22T00:02:49.417Z,101732.66
2022-08-22T00:02:49.791Z,101743.84
2022-08-22T00:02:52.601Z,101712.81
2022-08-22T00:02:56.161Z,101692.75
2022-08-22T00:02:56.789Z,101719.19
2022-08-22T00:02:57.070Z,101709.78
2022-08-22T00:02:58.815Z,101734.97
2022-08-22T00:03:00.667Z,101695.22
2022-08-22T00:03:00.779Z,101734.63
2022-08-22T00:03:04.188Z,101735.59
2022-08-22T00:03:06.741Z,101742.56
2022-08-22T00:03:07.177Z,101712.06
2022-08-22T00:03:09.412Z,101733.59
2022-08-22T00:03:10.470Z,101744.53
2022-08-22T00:03:11.562Z,101739.41
2022-08-22T00:03:12.379Z,101737.72
2022-08-22T00:03:23.636Z,101718.66
2022-08-22T00:04:33.478Z,101717.13
2022-08-22T00:05:34.837Z,101718.31
2022-08-22T00:06:09.739Z,101717.53
2022-08-22T00:07:25.795Z,101716.75
2022-08-22T00:08:14.448Z,101718.31
2022-08-22T00:09:13.844Z,101714.00
2022-08-22T00:10:08.746Z,101718.31
2022-08-22T00:11:13.206Z,101712.81
2022-08-22T00:12:00.013Z,101715.97
2022-08-22T00:12:37.744Z,101715.19
2022-08-22T00:13:33.908Z,101718.72
2022-08-22T00:14:17.535Z,101715.19
2022-08-22T00:15:03.605Z,101719.91
2022-08-22T00:15:41.835Z,101714.78
2022-08-22T00:16:30.297Z,101725.81
2022-08-22T00:17:20.420Z,101717.53
2022-08-22T00:18:09.703Z,101720.69
2022-08-22T00:19:06.291Z,101723.47
2022-08-22T00:20:06.941Z,101718.34
2022-08-22T00:20:45.924Z,101715.59
2022-08-22T00:21:27.258Z,101719.53
2022-08-22T00:22:09.072Z,101721.09
2022-08-22T00:22:56.335Z,101721.88
2022-08-22T00:23:36.748Z,101715.59
2022-08-22T00:24:21.451Z,101721.88
2022-08-22T00:25:24.608Z,101713.22
2022-08-22T00:26:16.931Z,101713.63
2022-08-22T00:27:04.303Z,101713.63
2022-08-22T00:27:59.634Z,101712.06
2022-08-22T00:28:53.400Z,101715.22
2022-08-22T00:29:37.404Z,101712.06
2022-08-22T00:31:17.440Z,101714.81
2022-08-22T00:32:30.894Z,101712.06
2022-08-22T00:33:05.209Z,101714.81
2022-08-22T00:33:46.685Z,101706.94
2022-08-22T00:34:22.604Z,101720.34
2022-08-22T00:36:04.124Z,101721.50
2022-08-22T00:36:51.350Z,101718.75
2022-08-22T00:37:22.866Z,101719.56
2022-08-22T00:38:26.756Z,101716.78
2022-08-22T00:39:19.220Z,101720.72
2022-08-22T00:40:29.689Z,101709.34
2022-08-22T00:41:33.511Z,101719.59
2022-08-22T00:42:49.785Z,101725.50
2022-08-22T00:43:45.361Z,101720.78
2022-08-22T00:44:35.416Z,101723.16
2022-08-22T00:45:30.806Z,101718.03
2022-08-22T00:46:20.108Z,101732.22
2022-08-22T00:47:33.990Z,101723.16
2022-08-22T00:48:05.709Z,101725.91
2022-08-22T00:49:07.605Z,101725.91
2022-08-22T00:50:16.453Z,101725.13
2022-08-22T00:51:01.893Z,101728.28
2022-08-22T00:51:51.865Z,101726.72
2022-08-22T00:52:43.687Z,101728.69
2022-08-22T00:53:33.611Z,101729.84
2022-08-22T00:54:19.848Z,101724.34
2022-08-22T00:55:11.374Z,101733.78
2022-08-22T00:56:50.397Z,101735.38
2022-08-22T00:57:52.629Z,101735.38
2022-08-22T00:58:44.551Z,101731.03
2022-08-22T00:59:43.815Z,101732.63
2022-08-22T01:00:28.468Z,101733.41
2022-08-22T01:01:06.804Z,101729.88
2022-08-22T01:01:51.532Z,101732.63
2022-08-22T01:02:38.748Z,101729.13
2022-08-22T01:03:27.516Z,101734.63
2022-08-22T01:04:11.491Z,101731.06
2022-08-22T01:05:02.522Z,101724.34
2022-08-22T01:05:48.983Z,101729.88
2022-08-22T01:06:48.651Z,101727.91
2022-08-22T01:07:37.828Z,101727.53
2022-08-22T01:08:24.740Z,101735.38
2022-08-22T01:10:10.260Z,101734.63
2022-08-22T01:11:13.344Z,101720.47
2022-08-22T01:12:16.516Z,101730.69
2022-08-22T01:13:05.342Z,101726.38
2022-08-22T01:13:53.960Z,101734.63
2022-08-22T01:14:44.351Z,101726.38
2022-08-22T01:15:22.849Z,101740.94
2022-08-22T01:16:06.260Z,101728.34
2022-08-22T01:17:00.693Z,101732.66
2022-08-22T01:18:02.369Z,101742.91
2022-08-22T01:19:08.446Z,101727.94
2022-08-22T01:20:08.297Z,101733.47
2022-08-22T01:20:55.339Z,101737.41
2022-08-22T01:21:54.191Z,101729.13
2022-08-22T01:22:47.109Z,101730.31
2022-08-22T01:23:40.613Z,101729.91
2022-08-22T01:25:01.615Z,101733.84
2022-08-22T01:26:04.489Z,101731.50
2022-08-22T01:27:20.188Z,101732.28
2022-08-22T01:28:13.492Z,101731.88
2022-08-22T01:29:03.396Z,101727.94
2022-08-22T01:30:08.028Z,101729.13
2022-08-22T01:30:59.355Z,101739.38
2022-08-22T01:32:08.013Z,101737.41
2022-08-22T01:33:05.715Z,101731.50
2022-08-22T01:34:14.256Z,101733.06
2022-08-22T01:35:15.163Z,101733.47
2022-08-22T01:35:59.585Z,101731.91
2022-08-22T01:36:48.236Z,101739.38
2022-08-22T01:37:31.494Z,101734.28
2022-08-22T01:38:25.752Z,101732.72
2022-08-22T01:39:16.215Z,101737.44
2022-08-22T01:40:25.295Z,101737.44
2022-08-22T01:41:22.912Z,101739.00
2022-08-22T01:42:15.542Z,101727.59
2022-08-22T01:43:04.807Z,101735.88
2022-08-22T01:44:13.862Z,101733.09
2022-08-22T01:45:05.441Z,101737.44
2022-08-22T01:45:59.804Z,101731.53
2022-08-22T01:46:40.528Z,101729.16
2022-08-22T01:47:18.310Z,101736.25
2022-08-22T01:48:16.719Z,101729.16
2022-08-22T01:48:55.909Z,101725.25
2022-08-22T01:49:37.164Z,101728.00
2022-08-22T01:50:30.643Z,101728.78
2022-08-22T01:51:31.162Z,101734.28
2022-08-22T01:52:09.563Z,101725.25
2022-08-22T01:52:48.810Z,101732.72
2022-08-22T01:53:39.731Z,101729.97
2022-08-22T01:54:24.608Z,101735.47
2022-08-22T01:55:01.943Z,101729.16
2022-08-22T01:55:55.331Z,101732.31
2022-08-22T01:56:33.263Z,101729.94
2022-08-22T01:57:08.221Z,101729.13
2022-08-22T01:57:53.679Z,101733.06
2022-08-22T01:58:30.692Z,101733.06
2022-08-22T02:00:17.220Z,101731.88
2022-08-22T02:01:15.016Z,101729.13
2022-08-22T02:02:13.043Z,101732.28
2022-08-22T02:03:03.368Z,101727.56
2022-08-22T02:04:03.896Z,101723.63
2022-08-22T02:04:59.546Z,101734.66
2022-08-22T02:05:46.807Z,101726.00
2022-08-22T02:06:42.842Z,101727.97
2022-08-22T02:08:44.947Z,101728.34
2022-08-22T02:09:45.363Z,101724.06
2022-08-22T02:10:25.735Z,101723.66
2022-08-22T02:11:04.214Z,101729.56
2022-08-22T02:11:52.485Z,101728.00
2022-08-22T02:12:47.505Z,101728.78
2022-08-22T02:13:51.278Z,101729.97
2022-08-22T02:14:40.148Z,101720.13
2022-08-22T02:15:14.470Z,101724.84
2022-08-22T02:15:54.124Z,101724.06
2022-08-22T02:16:40.015Z,101726.81
2022-08-22T02:17:22.481Z,101726.81
2022-08-22T02:18:12.381Z,101726.03
2022-08-22T02:19:18.215Z,101728.78
2022-08-22T02:20:57.760Z,101729.19
2022-08-22T02:21:51.665Z,101724.06
2022-08-22T02:22:49.037Z,101722.88
2022-08-22T02:23:25.014Z,101722.88
2022-08-22T02:24:19.343Z,101722.09
2022-08-22T02:25:09.139Z,101720.13
2022-08-22T02:25:55.357Z,101712.25
2022-08-22T02:26:50.279Z,101715.00
2022-08-22T02:27:43.344Z,101711.44
2022-08-22T02:28:27.795Z,101716.16
2022-08-22T02:29:12.154Z,101713.41
2022-08-22T02:29:49.575Z,101707.91
2022-08-22T02:30:26.335Z,101712.63
2022-08-22T02:31:25.863Z,101716.16
2022-08-22T02:32:16.408Z,101706.34
2022-08-22T02:33:13.144Z,101708.31
2022-08-22T02:33:54.022Z,101716.56
2022-08-22T02:36:17.384Z,101712.63
2022-08-22T02:37:09.906Z,101718.13
2022-08-22T02:38:08.415Z,101716.97
2022-08-22T02:39:06.939Z,101718.13
2022-08-22T02:39:53.338Z,101708.31
2022-08-22T02:40:43.443Z,101713.81
2022-08-22T02:41:52.376Z,101712.25
2022-08-22T02:42:50.892Z,101705.19
2022-08-22T02:43:35.637Z,101715.00
2022-08-22T02:44:21.017Z,101709.50
2022-08-22T02:45:21.437Z,101703.97
2022-08-22T02:46:32.484Z,101707.94
2022-08-22T02:47:13.480Z,101705.94
2022-08-22T02:48:14.732Z,101705.94
2022-08-22T02:48:58.692Z,101708.34
2022-08-22T02:49:43.781Z,101702.03
2022-08-22T02:51:31.370Z,101706.38
2022-08-22T02:52:26.308Z,101719.34
2022-08-22T02:53:05.331Z,101713.06
2022-08-22T02:53:46.076Z,101716.22
2022-08-22T02:54:31.182Z,101711.50
2022-08-22T02:55:46.163Z,101705.59
2022-08-22T02:56:41.115Z,101704.41
2022-08-22T02:57:20.033Z,101709.91
2022-08-22T02:58:03.094Z,101716.59
2022-08-22T02:58:45.586Z,101713.06
2022-08-22T02:59:30.905Z,101708.34
2022-08-22T03:00:31.034Z,101706.38
2022-08-22T03:01:17.645Z,101710.31
2022-08-22T03:01:50.392Z,101707.56
2022-08-22T03:02:36.371Z,101715.81
2022-08-22T03:03:20.059Z,101708.34
2022-08-22T03:03:52.737Z,101706.78
2022-08-22T03:05:26.190Z,101699.28
2022-08-22T03:06:06.255Z,101702.84
2022-08-22T03:06:42.940Z,101699.28
2022-08-22T03:07:37.885Z,101703.63
2022-08-22T03:08:22.708Z,101702.84
2022-08-22T03:09:15.528Z,101703.22
2022-08-22T03:10:10.712Z,101696.94
2022-08-22T03:10:54.513Z,101702.44
2022-08-22T03:11:35.366Z,101698.91
2022-08-22T03:12:29.390Z,101696.94
2022-08-22T03:13:12.401Z,101702.44
2022-08-22T03:14:28.117Z,101698.50
2022-08-22T03:15:28.108Z,101700.47
2022-08-22T03:17:05.811Z,101698.91
2022-08-22T03:17:51.204Z,101705.97
2022-08-22T03:18:41.338Z,101698.50
2022-08-22T03:19:20.244Z,101701.25
2022-08-22T03:20:07.643Z,101702.06
2022-08-22T03:20:48.083Z,101698.50
2022-08-22T03:21:41.171Z,101698.50
2022-08-22T03:22:30.583Z,101699.28
2022-08-22T03:23:17.153Z,101699.69
2022-08-22T03:23:55.704Z,101700.09
2022-08-22T03:24:52.572Z,101697.31
2022-08-22T03:25:40.359Z,101696.53
2022-08-22T03:26:27.899Z,101698.91
2022-08-22T03:27:32.177Z,101700.09
2022-08-22T03:28:58.940Z,101694.97
2022-08-22T03:29:36.129Z,101697.34
2022-08-22T03:30:10.706Z,101695.38
2022-08-22T03:30:43.976Z,101693.78
2022-08-22T03:31:20.129Z,101694.56
2022-08-22T03:32:14.231Z,101694.56
2022-08-22T03:32:59.310Z,101694.56
2022-08-22T03:33:31.759Z,101693.78
2022-08-22T03:34:25.043Z,101692.63
2022-08-22T03:35:08.894Z,101693.78
2022-08-22T03:35:46.243Z,101693.78
2022-08-22T03:36:17.748Z,101691.03
2022-08-22T03:37:17.891Z,101687.88
2022-08-22T03:37:54.120Z,101686.31
2022-08-22T03:40:52.912Z,101679.63
2022-08-22T03:41:50.708Z,101681.59
2022-08-22T03:43:15.432Z,101680.41
2022-08-22T03:43:58.718Z,101681.59
2022-08-22T03:44:38.915Z,101680.81
2022-08-22T03:45:33.496Z,101683.56
2022-08-22T03:46:30.038Z,101674.53
2022-08-22T03:47:01.336Z,101674.53
2022-08-22T03:47:43.299Z,101680.81
2022-08-22T03:48:51.927Z,101672.56
2022-08-22T03:50:00.815Z,101680.81
2022-08-22T03:50:47.573Z,101682.00
2022-08-22T03:51:45.154Z,101674.13
2022-08-22T03:52:34.773Z,101676.09
2022-08-22T03:53:24.044Z,101684.34
2022-08-22T03:54:14.822Z,101673.75
2022-08-22T03:54:53.825Z,101674.91
2022-08-22T03:55:32.008Z,101685.53
2022-08-22T03:56:12.425Z,101678.84
2022-08-22T03:57:20.592Z,101681.59
2022-08-22T03:57:57.944Z,101686.31
2022-08-22T03:58:57.363Z,101686.31
2022-08-22T04:00:01.632Z,101683.56
2022-08-22T04:00:48.031Z,101677.66
2022-08-22T04:01:41.871Z,101682.78
2022-08-22T04:02:42.845Z,101680.03
2022-08-22T04:03:46.414Z,101680.81
2022-08-22T04:04:28.556Z,101676.50
2022-08-22T04:05:18.036Z,101683.56
2022-08-22T04:06:13.058Z,101685.94
2022-08-22T04:06:53.669Z,101680.81
2022-08-22T04:07:58.375Z,101686.31
2022-08-22T04:09:12.574Z,101682.38
2022-08-22T04:10:14.524Z,101689.06
2022-08-22T04:10:54.896Z,101687.50
2022-08-22T04:12:10.891Z,101685.53
2022-08-22T04:12:56.051Z,101687.50
2022-08-22T04:13:48.978Z,101682.00
2022-08-22T04:14:29.341Z,101692.63
2022-08-22T04:15:36.999Z,101691.81
2022-08-22T04:16:49.207Z,101689.06
2022-08-22T04:18:47.563Z,101681.22
2022-08-22T04:19:38.630Z,101682.38
2022-08-22T04:20:54.249Z,101682.78
2022-08-22T04:21:37.284Z,101687.50
2022-08-22T04:22:39.528Z,101685.53
2022-08-22T04:23:46.306Z,101689.88
2022-08-22T04:24:52.215Z,101685.53
2022-08-22T04:25:33.704Z,101685.94
2022-08-22T04:26:12.727Z,101679.63
2022-08-22T04:27:15.716Z,101685.53
2022-08-22T04:28:10.108Z,101685.94
2022-08-22T04:28:49.202Z,101688.28
2022-08-22T04:29:31.888Z,101686.72
2022-08-22T04:30:30.051Z,101689.47
2022-08-22T04:31:06.104Z,101691.03
2022-08-22T04:31:46.185Z,101688.28
2022-08-22T04:32:36.450Z,101691.81
2022-08-22T04:33:44.372Z,101696.94
2022-08-22T04:34:31.855Z,101691.03
2022-08-22T04:35:12.280Z,101693.00
2022-08-22T04:35:57.806Z,101687.50
2022-08-22T04:36:45.360Z,101697.72
2022-08-22T04:37:55.052Z,101695.75
2022-08-22T04:38:37.096Z,101693.78
2022-08-22T04:39:24.915Z,101698.50
2022-08-22T04:39:59.282Z,101697.34
2022-08-22T04:40:43.316Z,101700.88
2022-08-22T04:41:41.552Z,101698.91
2022-08-22T04:42:36.699Z,101694.19
2022-08-22T04:44:19.198Z,101698.13
2022-08-22T04:45:00.158Z,101699.31
2022-08-22T04:45:52.378Z,101698.91
2022-08-22T04:46:36.699Z,101690.66
2022-08-22T04:47:35.031Z,101699.69
2022-08-22T04:48:27.858Z,101696.94
2022-08-22T04:49:16.687Z,101696.94
2022-08-22T04:50:11.688Z,101696.94
2022-08-22T04:50:54.611Z,101699.69
2022-08-22T04:51:44.308Z,101701.66
2022-08-22T04:52:38.420Z,101704.81
2022-08-22T04:53:32.528Z,101696.94
2022-08-22T04:54:18.295Z,101694.19
2022-08-22T04:55:16.975Z,101702.44
2022-08-22T04:56:07.689Z,101699.31
2022-08-22T04:57:23.844Z,101696.53
2022-08-22T04:58:32.526Z,101703.22
2022-08-22T04:59:10.242Z,101702.06
2022-08-22T04:59:43.148Z,101706.38
2022-08-22T05:00:16.649Z,101709.91
2022-08-22T05:01:06.635Z,101704.41
2022-08-22T05:01:53.427Z,101702.44
2022-08-22T05:02:27.797Z,101699.31
2022-08-22T05:03:02.730Z,101697.72
2022-08-22T05:03:44.370Z,101703.22
2022-08-22T05:04:21.019Z,101707.94
2022-08-22T05:05:01.553Z,101702.06
2022-08-22T05:05:38.697Z,101709.53
2022-08-22T05:06:13.353Z,101704.81
2022-08-22T05:06:50.425Z,101706.38
2022-08-22T05:07:28.987Z,101710.69
2022-08-22T05:08:11.579Z,101709.91
2022-08-22T05:08:46.034Z,101702.06
2022-08-22T05:09:31.223Z,101709.53
2022-08-22T05:10:16.766Z,101707.94
2022-08-22T05:10:50.587Z,101711.50
2022-08-22T05:12:20.595Z,101705.97
2022-08-22T05:13:00.463Z,101704.81
2022-08-22T05:13:39.375Z,101704.81
2022-08-22T05:14:19.012Z,101705.19
2022-08-22T05:15:18.982Z,101702.44
2022-08-22T05:16:36.832Z,101705.19
2022-08-22T05:17:13.226Z,101702.44
2022-08-22T05:17:51.682Z,101702.06
2022-08-22T05:18:29.612Z,101699.31
2022-08-22T05:20:00.787Z,101702.44
2022-08-22T05:20:34.673Z,101699.69
2022-08-22T05:21:27.290Z,101705.59
2022-08-22T05:21:59.140Z,101699.31
2022-08-22T05:22:37.584Z,101706.78
2022-08-22T05:23:29.134Z,101702.84
2022-08-22T05:24:14.168Z,101702.84
2022-08-22T05:24:49.505Z,101704.81
2022-08-22T05:25:28.730Z,101705.59
2022-08-22T05:26:03.455Z,101699.31
2022-08-22T05:26:40.784Z,101703.63
2022-08-22T05:27:19.763Z,101701.25
2022-08-22T05:28:01.955Z,101698.50
2022-08-22T05:29:00.433Z,101698.50
2022-08-22T05:29:32.678Z,101705.59
2022-08-22T05:30:13.371Z,101709.91
2022-08-22T05:30:47.637Z,101706.78
2022-08-22T05:31:26.351Z,101710.31
2022-08-22T05:32:03.478Z,101713.44
2022-08-22T05:33:07.043Z,101714.25
2022-08-22T05:33:43.555Z,101714.25
2022-08-22T05:34:20.239Z,101716.59
2022-08-22T05:34:57.719Z,101717.00
2022-08-22T05:35:57.861Z,101722.09
2022-08-22T05:36:36.004Z,101722.09
2022-08-22T05:37:24.612Z,101715.41
2022-08-22T05:37:56.502Z,101730.75
2022-08-22T05:38:32.237Z,101721.72
2022-08-22T05:39:10.080Z,101727.63
2022-08-22T05:39:47.332Z,101732.34
2022-08-22T05:40:28.180Z,101727.63
2022-08-22T05:41:05.707Z,101733.91
2022-08-22T05:41:39.111Z,101731.16
2022-08-22T05:42:25.820Z,101738.63
2022-08-22T05:42:58.101Z,101732.34
2022-08-22T05:43:29.996Z,101735.88
2022-08-22T05:44:02.436Z,101738.63
2022-08-22T05:44:37.982Z,101732.34
2022-08-22T05:45:12.423Z,101737.84
2022-08-22T05:45:47.607Z,101739.41
2022-08-22T05:46:42.846Z,101740.19
2022-08-22T05:47:32.369Z,101738.22
2022-08-22T05:48:19.740Z,101736.66
2022-08-22T05:49:03.836Z,101745.28
2022-08-22T05:50:02.122Z,101739.00
2022-08-22T05:50:50.929Z,101742.53
2022-08-22T05:51:30.064Z,101746.06
2022-08-22T05:52:23.051Z,101739.78
2022-08-22T05:53:18.128Z,101743.31
2022-08-22T05:53:59.116Z,101740.16
2022-08-22T05:54:34.677Z,101744.50
2022-08-22T05:55:12.167Z,101731.91
2022-08-22T05:55:53.505Z,101734.66
2022-08-22T05:56:37.289Z,101737.03
2022-08-22T05:57:41.338Z,101736.63
2022-08-22T05:58:31.739Z,101733.88
2022-08-22T05:59:29.698Z,101734.66
2022-08-22T06:00:24.168Z,101727.97
2022-08-22T06:01:09.015Z,101734.25
2022-08-22T06:01:51.942Z,101735.88
2022-08-22T06:02:38.919Z,101734.25
2022-08-22T06:03:31.275Z,101731.50
2022-08-22T06:04:27.566Z,101734.69
2022-08-22T06:05:03.275Z,101733.13
2022-08-22T06:05:41.134Z,101734.69
2022-08-22T06:06:18.271Z,101745.69
2022-08-22T06:06:56.788Z,101738.22
2022-08-22T06:07:33.774Z,101739.00
2022-08-22T06:08:14.073Z,101739.81
2022-08-22T06:09:12.756Z,101731.94
2022-08-22T06:09:46.914Z,101738.22
2022-08-22T06:10:27.623Z,101738.22
2022-08-22T06:11:07.388Z,101734.69
2022-08-22T06:11:50.114Z,101736.25
2022-08-22T06:12:39.194Z,101738.63
2022-08-22T06:13:41.278Z,101738.63
2022-08-22T06:14:30.037Z,101744.13
2022-08-22T06:15:14.491Z,101743.72
2022-08-22T06:16:05.556Z,101747.28
2022-08-22T06:16:47.531Z,101747.28
2022-08-22T06:17:26.492Z,101751.59
2022-08-22T06:18:02.363Z,101748.41
2022-08-22T06:18:54.309Z,101746.44
2022-08-22T06:19:26.020Z,101751.97
2022-08-22T06:20:00.064Z,101745.66
2022-08-22T06:20:39.120Z,101751.97
2022-08-22T06:21:20.884Z,101759.03
2022-08-22T06:21:54.688Z,101749.59
2022-08-22T06:22:32.071Z,101750.38
2022-08-22T06:23:07.203Z,101753.13
2022-08-22T06:23:45.630Z,101756.69
2022-08-22T06:24:23.955Z,101750.00
2022-08-22T06:25:01.864Z,101752.75
2022-08-22T06:25:37.561Z,101749.59
2022-08-22T06:26:21.168Z,101751.16
2022-08-22T06:26:57.888Z,101754.72
2022-08-22T06:27:47.935Z,101756.28
2022-08-22T06:29:31.710Z,101757.47
2022-08-22T06:30:04.604Z,101751.94
2022-08-22T06:30:37.922Z,101748.00
2022-08-22T06:31:18.368Z,101753.13
2022-08-22T06:31:49.871Z,101751.94
2022-08-22T06:32:44.423Z,101758.63
2022-08-22T06:35:56.755Z,101757.84
2022-08-22T06:36:32.385Z,101762.97
2022-08-22T06:37:09.643Z,101759.81
2022-08-22T06:37:45.904Z,101764.13
2022-08-22T06:38:19.788Z,101762.94
2022-08-22T06:39:12.574Z,101765.28
2022-08-22T06:39:49.064Z,101762.91
2022-08-22T06:40:20.909Z,101760.94
2022-08-22T06:40:54.467Z,101753.47
2022-08-22T06:41:30.140Z,101761.75
2022-08-22T06:42:04.517Z,101760.56
2022-08-22T06:43:00.002Z,101756.63
2022-08-22T06:43:38.959Z,101759.75
2022-08-22T06:44:14.908Z,101768.81
2022-08-22T06:44:51.519Z,101766.44
2022-08-22T06:45:29.982Z,101762.13
2022-08-22T06:46:01.722Z,101765.28
2022-08-22T06:46:36.157Z,101763.31
2022-08-22T06:47:11.529Z,101769.19
2022-08-22T06:47:50.125Z,101766.44
2022-08-22T06:48:24.134Z,101760.94
2022-08-22T06:48:57.196Z,101768.41
2022-08-22T06:49:35.138Z,101763.69
2022-08-22T06:50:14.611Z,101770.78
2022-08-22T06:50:53.363Z,101765.25
2022-08-22T06:51:28.103Z,101765.25
2022-08-22T06:52:03.204Z,101765.25
2022-08-22T06:52:48.508Z,101764.47
2022-08-22T06:53:24.751Z,101766.44
2022-08-22T06:54:03.546Z,101767.63
2022-08-22T06:54:38.672Z,101761.34
2022-08-22T06:56:02.956Z,101764.47
2022-08-22T06:56:40.310Z,101762.91
2022-08-22T06:57:35.981Z,101764.47
2022-08-22T06:58:15.355Z,101770.34
2022-08-22T06:58:52.356Z,101767.59
2022-08-22T06:59:27.515Z,101770.34
2022-08-22T07:00:18.089Z,101770.72
2022-08-22T07:01:11.705Z,101769.94
2022-08-22T07:02:04.062Z,101769.53
2022-08-22T07:02:42.824Z,101772.69
2022-08-22T07:03:25.387Z,101770.72
2022-08-22T07:04:03.161Z,101772.28
2022-08-22T07:04:34.650Z,101774.66
2022-08-22T07:05:13.874Z,101775.44
2022-08-22T07:05:45.275Z,101765.97
2022-08-22T07:06:21.163Z,101775.81
2022-08-22T07:06:54.996Z,101769.13
2022-08-22T07:07:27.751Z,101763.63
2022-08-22T07:08:09.066Z,101770.31
2022-08-22T07:08:40.660Z,101774.25
2022-08-22T07:09:26.324Z,101773.81
2022-08-22T07:09:57.791Z,101771.06
2022-08-22T07:10:29.203Z,101773.81
2022-08-22T07:11:23.447Z,101774.59
2022-08-22T07:12:19.460Z,101772.22
2022-08-22T07:12:54.080Z,101771.44
2022-08-22T07:13:28.202Z,101774.59
2022-08-22T07:14:03.562Z,101768.28
2022-08-22T07:15:42.165Z,101771.81
2022-08-22T07:16:13.802Z,101776.94
2022-08-22T07:16:56.415Z,101779.31
2022-08-22T07:17:32.668Z,101779.31
2022-08-22T07:18:08.535Z,101775.34
2022-08-22T07:18:48.960Z,101778.91
2022-08-22T07:20:03.770Z,101778.50
2022-08-22T07:20:45.099Z,101773.78
2022-08-22T07:21:47.164Z,101770.22
2022-08-22T07:22:25.608Z,101765.50
2022-08-22T07:23:18.052Z,101765.09
2022-08-22T07:23:49.428Z,101764.69
2022-08-22T07:24:31.300Z,101762.72
2022-08-22T07:25:06.477Z,101765.50
2022-08-22T07:25:54.181Z,101763.50
2022-08-22T07:26:44.187Z,101753.28
2022-08-22T07:27:37.538Z,101757.59
2022-08-22T07:28:51.566Z,101758.38
2022-08-22T07:29:44.101Z,101754.81
2022-08-22T07:30:27.397Z,101763.84
2022-08-22T07:31:13.290Z,101765.03
2022-08-22T07:31:53.987Z,101762.72
2022-08-22T07:32:41.848Z,101753.66
2022-08-22T07:33:28.004Z,101758.00
2022-08-22T07:34:33.022Z,101754.00
2022-08-22T07:35:13.488Z,101756.38
2022-08-22T07:35:54.421Z,101758.72
2022-08-22T07:36:39.079Z,101757.94
2022-08-22T07:37:23.474Z,101758.31
2022-08-22T07:38:42.665Z,101763.81
2022-08-22T07:39:28.094Z,101754.78
2022-08-22T07:40:22.090Z,101754.75
2022-08-22T07:41:15.227Z,101751.56
2022-08-22T07:42:07.546Z,101761.78
2022-08-22T07:42:55.907Z,101753.50
2022-08-22T07:43:36.203Z,101758.22
2022-08-22T07:44:16.542Z,101752.69
2022-08-22T07:45:06.191Z,101749.13
2022-08-22T07:45:47.184Z,101751.91
2022-08-22T07:46:36.838Z,101754.25
2022-08-22T07:48:25.098Z,101747.94
2022-08-22T07:49:14.491Z,101751.03
2022-08-22T07:49:58.897Z,101757.72
2022-08-22T07:50:34.637Z,101749.44
2022-08-22T07:51:16.970Z,101755.34
2022-08-22T07:51:57.647Z,101747.84
2022-08-22T07:52:37.424Z,101753.72
2022-08-22T07:53:28.291Z,101759.56
2022-08-22T07:54:04.580Z,101749.28
2022-08-22T07:55:02.199Z,101751.25
2022-08-22T07:55:48.439Z,101752.41
2022-08-22T07:56:26.119Z,101751.22
2022-08-22T07:57:09.350Z,101750.41
2022-08-22T07:57:45.233Z,101747.25
2022-08-22T07:58:18.015Z,101745.59
2022-08-22T07:58:55.907Z,101746.00
2022-08-22T07:59:29.486Z,101744.00
2022-08-22T08:00:04.351Z,101738.06
2022-08-22T08:00:43.056Z,101749.88
2022-08-22T08:01:20.806Z,101745.47
2022-08-22T08:01:56.877Z,101741.47
2022-08-22T08:02:28.698Z,101736.31
2022-08-22T08:03:06.888Z,101740.25
2022-08-22T08:03:38.633Z,101741.41
2022-08-22T08:04:39.537Z,101734.31
2022-08-22T08:05:13.621Z,101733.44
2022-08-22T08:05:45.472Z,101731.81
2022-08-22T08:06:17.161Z,101731.41
2022-08-22T08:06:52.581Z,101737.28
2022-08-22T08:07:27.469Z,101735.69
2022-08-22T08:08:01.675Z,101735.28
2022-08-22T08:08:41.806Z,101736.84
2022-08-22T08:09:17.036Z,101733.66
2022-08-22T08:09:56.409Z,101732.03
2022-08-22T08:10:32.824Z,101732.41
2022-08-22T08:11:04.987Z,101735.91
2022-08-22T08:11:41.467Z,101730.78
2022-08-22T08:12:15.518Z,101725.19
2022-08-22T08:12:52.778Z,101725.16
2022-08-22T08:13:41.581Z,101719.59
2022-08-22T08:14:16.647Z,101725.47
2022-08-22T08:14:53.455Z,101718.75
2022-08-22T08:15:25.866Z,101724.22
2022-08-22T08:15:58.543Z,101724.59
2022-08-22T08:17:00.305Z,101723.41
2022-08-22T08:17:34.490Z,101721.38
2022-08-22T08:18:11.700Z,101716.59
2022-08-22T08:18:46.980Z,101717.31
2022-08-22T08:19:19.872Z,101714.91
2022-08-22T08:19:52.423Z,101718.47
2022-08-22T08:20:29.462Z,101718.84
2022-08-22T08:21:06.852Z,101712.91
2022-08-22T08:21:47.423Z,101714.84
2022-08-22T08:22:23.536Z,101713.59
2022-08-22T08:22:57.084Z,101712.75
2022-08-22T08:23:33.538Z,101706.38
2022-08-22T08:24:11.911Z,101706.34
2022-08-22T08:24:45.724Z,101713.81
2022-08-22T08:25:25.773Z,101707.88
2022-08-22T08:26:17.246Z,101706.25
2022-08-22T08:27:13.590Z,101714.94
2022-08-22T08:28:04.183Z,101707.84
2022-08-22T08:28:44.116Z,101707.00
2022-08-22T08:29:18.407Z,101712.53
2022-08-22T08:29:59.003Z,101707.72
2022-08-22T08:30:42.956Z,101715.19
2022-08-22T08:31:44.877Z,101711.94
2022-08-22T08:32:17.999Z,101712.69
2022-08-22T08:32:59.548Z,101707.50
2022-08-22T08:33:50.171Z,101707.50
2022-08-22T08:34:24.906Z,101699.56
2022-08-22T08:34:56.600Z,101705.03
2022-08-22T08:35:35.352Z,101704.97
2022-08-22T08:36:48.136Z,101712.03
2022-08-22T08:38:48.652Z,101707.22
2022-08-22T08:39:23.495Z,101698.56
2022-08-22T08:39:59.168Z,101707.28
2022-08-22T08:40:30.479Z,101706.50
2022-08-22T08:41:24.538Z,101705.28
2022-08-22T08:42:39.531Z,101709.56
2022-08-22T08:43:40.450Z,101710.28
2022-08-22T08:44:49.543Z,101703.53
2022-08-22T08:45:26.570Z,101714.19
2022-08-22T08:46:14.214Z,101715.75
2022-08-22T08:47:17.081Z,101704.69
2022-08-22T08:48:20.950Z,101701.50
2022-08-22T08:49:24.090Z,101701.00
2022-08-22T08:50:04.691Z,101699.34
2022-08-22T08:52:07.972Z,101703.84
2022-08-22T08:53:21.904Z,101700.97
2022-08-22T08:54:17.902Z,101697.63
2022-08-22T08:55:28.587Z,101703.41
2022-08-22T08:56:25.331Z,101699.28
2022-08-22T08:57:27.374Z,101702.75
2022-08-22T08:58:47.467Z,101697.09
2022-08-22T09:00:01.567Z,101705.72
2022-08-22T09:00:42.710Z,101702.22
2022-08-22T09:01:43.326Z,101704.53
2022-08-22T09:02:33.906Z,101707.22
2022-08-22T09:05:48.883Z,101708.50
2022-08-22T09:06:38.559Z,101706.09
2022-08-22T09:07:35.752Z,101704.44
2022-08-22T09:08:33.198Z,101706.78
2022-08-22T09:09:39.571Z,101706.00
2022-08-22T09:10:49.142Z,101706.00
2022-08-22T09:11:30.930Z,101708.38